Time;durP1;ratioP1;P1;durP2;ratioP2;P2;SDS_P1;SDS_P2;PMS_P1;PMS_P2;Temp;Humidity;BMP_temperature;BMP_pressure;BME280_temperature;BME280_humidity;BME280_pressure;Samples;Min_cycle;Max_cycle;Signal;HPM_P1;HPM_P2
2023/07/18 00:01:41;;;;;;;5.00;3.67;;;13.10;1.00;;;;;;4991881;28;20191;-54
2023/07/18 00:04:07;;;;;;;5.10;3.80;;;13.10;1.00;;;;;;4991816;28;20422;-53
2023/07/18 00:06:33;;;;;;;6.97;4.80;;;13.20;99.90;;;;;;4991259;28;20549;-53
2023/07/18 00:08:59;;;;;;;9.60;4.60;;;13.10;99.90;;;;;;4991414;28;20689;-53
2023/07/18 00:11:24;;;;;;;6.20;4.30;;;13.10;1.00;;;;;;4991787;28;20505;-54
2023/07/18 00:13:50;;;;;;;13.67;5.47;;;13.10;1.00;;;;;;4991386;28;20206;-54
2023/07/18 00:16:16;;;;;;;11.10;4.50;;;13.10;99.90;;;;;;4991703;28;20186;-54
2023/07/18 00:18:42;;;;;;;8.20;4.80;;;13.20;1.00;;;;;;4991332;28;20541;-54
2023/07/18 00:21:07;;;;;;;9.13;5.17;;;13.10;1.00;;;;;;4991316;28;20230;-54
2023/07/18 00:23:33;;;;;;;7.50;5.50;;;13.00;1.00;;;;;;4991630;28;20270;-54
2023/07/18 00:25:59;;;;;;;6.50;5.10;;;13.10;21.90;;;;;;4991271;28;20186;-54
2023/07/18 00:28:25;;;;;;;7.40;5.90;;;13.10;99.90;;;;;;4990935;28;20500;-53
2023/07/18 00:30:51;;;;;;;13.63;6.10;;;13.10;99.90;;;;;;4991103;28;20214;-55
2023/07/18 00:33:16;;;;;;;14.17;7.00;;;13.10;99.90;;;;;;4991621;28;20200;-54
2023/07/18 00:35:43;;;;;;;8.40;6.47;;;13.10;99.90;;;;;;4991411;28;20181;-55
2023/07/18 00:38:11;;;;;;;9.07;6.07;;;13.10;99.90;;;;;;4991118;28;20201;-54
2023/07/18 00:40:40;;;;;;;11.73;7.03;;;13.10;99.90;;;;;;4991279;28;20452;-54
2023/07/18 00:43:12;;;;;;;12.13;6.70;;;13.10;99.90;;;;;;4991423;28;20794;-54
2023/07/18 00:45:38;;;;;;;9.60;7.67;;;13.10;99.90;;;;;;4991297;28;20412;-54
2023/07/18 00:48:05;;;;;;;10.70;7.80;;;13.10;99.90;;;;;;4991155;28;20414;-55
2023/07/18 00:50:31;;;;;;;15.33;8.23;;;13.10;99.90;;;;;;4990607;28;20464;-55
2023/07/18 00:52:57;;;;;;;10.03;7.97;;;13.10;99.90;;;;;;4991463;28;20431;-55
2023/07/18 00:55:23;;;;;;;10.73;7.30;;;13.20;99.90;;;;;;4991334;28;20793;-55
2023/07/18 00:57:49;;;;;;;11.77;8.60;;;13.20;99.90;;;;;;4991558;28;20437;-56
2023/07/18 01:00:16;;;;;;;9.87;7.70;;;13.10;99.90;;;;;;4992822;28;20573;-54
2023/07/18 01:02:44;;;;;;;11.00;7.63;;;13.10;99.90;;;;;;4991653;28;20463;-55
2023/07/18 01:05:10;;;;;;;12.10;8.90;;;13.20;99.90;;;;;;4990899;28;20425;-55
2023/07/18 01:07:37;;;;;;;11.40;8.83;;;13.10;99.90;;;;;;4990589;28;20424;-55
2023/07/18 01:10:37;;;;;;;11.40;9.60;;;13.20;99.90;;;;;;4990810;28;20462;-54
2023/07/18 01:13:03;;;;;;;13.50;9.70;;;13.10;99.90;;;;;;5022283;28;20436;-54
2023/07/18 01:15:31;;;;;;;10.93;8.73;;;13.10;99.90;;;;;;4990743;28;20733;-54
2023/07/18 01:17:56;;;;;;;14.70;9.33;;;13.10;99.90;;;;;;4991028;28;20185;-54
2023/07/18 01:20:27;;;;;;;16.90;10.07;;;13.20;99.90;;;;;;4990829;28;20473;-54
2023/07/18 01:22:58;;;;;;;15.60;9.87;;;13.20;99.90;;;;;;4990977;28;20268;-55
2023/07/18 01:25:24;;;;;;;14.03;9.53;;;13.20;99.90;;;;;;4990854;28;20957;-54
2023/07/18 01:27:53;;;;;;;13.50;9.97;;;13.20;99.90;;;;;;4990611;28;20520;-55
2023/07/18 01:30:21;;;;;;;19.73;10.80;;;13.20;99.90;;;;;;4990587;28;20514;-55
2023/07/18 01:32:48;;;;;;;18.27;10.90;;;13.20;99.90;;;;;;4990704;28;20428;-55
2023/07/18 01:35:15;;;;;;;17.47;10.80;;;13.20;99.90;;;;;;4990551;28;20416;-55
2023/07/18 01:37:44;;;;;;;14.40;10.17;;;13.20;99.90;;;;;;4990483;28;20425;-54
2023/07/18 01:40:14;;;;;;;19.20;10.50;;;13.30;99.90;;;;;;4990467;28;20437;-55
2023/07/18 01:42:40;;;;;;;21.27;10.80;;;13.20;99.90;;;;;;4990520;28;20425;-54
2023/07/18 01:45:06;;;;;;;16.77;10.13;;;13.20;99.90;;;;;;4990383;28;20416;-55
2023/07/18 01:47:32;;;;;;;19.60;10.50;;;13.20;99.90;;;;;;4990364;28;20417;-55
2023/07/18 01:50:04;;;;;;;16.20;11.27;;;13.20;99.90;;;;;;4990383;28;20501;-54
2023/07/18 01:52:30;;;;;;;16.93;11.83;;;13.20;99.90;;;;;;4990512;28;20459;-54
2023/07/18 01:54:58;;;;;;;22.80;12.00;;;13.20;99.90;;;;;;4990085;28;20473;-54
2023/07/18 01:57:45;;;;;;;18.70;11.13;;;13.30;99.90;;;;;;4990150;28;20900;-54
2023/07/18 02:00:12;;;;;;;22.30;12.30;;;13.30;99.90;;;;;;4990197;28;20410;-55
2023/07/18 02:02:38;;;;;;;17.43;11.53;;;13.20;99.90;;;;;;4990240;28;20887;-55
2023/07/18 02:05:04;;;;;;;19.70;13.13;;;13.20;99.90;;;;;;4990526;28;20798;-54
2023/07/18 02:07:30;;;;;;;21.73;12.80;;;13.10;99.90;;;;;;4989816;28;20427;-54
2023/07/18 02:09:57;;;;;;;17.60;12.37;;;13.10;99.90;;;;;;4990408;28;20547;-55
2023/07/18 02:12:22;;;;;;;18.13;11.87;;;13.10;99.90;;;;;;4990106;28;20426;-55
2023/07/18 02:14:48;;;;;;;15.30;11.50;;;13.10;99.90;;;;;;4992152;28;20425;-54
2023/07/18 02:17:13;;;;;;;24.67;13.00;;;13.00;99.90;;;;;;4993331;28;20204;-54
2023/07/18 02:19:40;;;;;;;21.03;12.27;;;13.10;99.90;;;;;;4993198;28;20650;-55
2023/07/18 02:22:05;;;;;;;21.40;12.53;;;13.10;99.90;;;;;;4993480;28;20202;-54
2023/07/18 02:24:31;;;;;;;15.03;11.60;;;13.00;99.90;;;;;;4992988;28;20413;-55
2023/07/18 02:27:00;;;;;;;20.60;12.20;;;13.10;99.90;;;;;;4993175;28;20186;-54
2023/07/18 02:29:25;;;;;;;26.50;13.07;;;13.10;99.90;;;;;;4993585;28;20547;-54
2023/07/18 02:31:51;;;;;;;21.67;12.33;;;13.10;99.90;;;;;;4993124;28;20474;-54
2023/07/18 02:34:17;;;;;;;23.23;13.43;;;13.10;99.90;;;;;;4993014;28;20527;-54
2023/07/18 02:36:42;;;;;;;25.57;12.43;;;13.10;99.90;;;;;;4993085;28;20227;-55
2023/07/18 02:39:10;;;;;;;24.23;13.23;;;13.10;99.90;;;;;;4993030;28;20190;-55
2023/07/18 02:41:36;;;;;;;26.77;14.27;;;13.10;99.90;;;;;;4993247;28;20184;-55
2023/07/18 02:44:02;;;;;;;24.13;13.40;;;13.10;99.90;;;;;;4992967;28;20800;-54
2023/07/18 02:46:28;;;;;;;22.87;13.03;;;13.10;99.90;;;;;;4993254;28;20425;-55
2023/07/18 02:48:54;;;;;;;22.13;12.70;;;13.10;99.90;;;;;;4992773;28;20418;-54
2023/07/18 02:51:19;;;;;;;23.03;13.83;;;13.10;99.90;;;;;;4993114;28;20189;-55
2023/07/18 02:53:45;;;;;;;20.83;13.00;;;13.10;99.90;;;;;;4992431;28;20181;-54
2023/07/18 02:56:10;;;;;;;22.33;14.40;;;13.00;99.90;;;;;;4992838;28;20181;-54
2023/07/18 02:58:36;;;;;;;23.47;13.90;;;13.00;99.90;;;;;;4992842;28;20513;-54
2023/07/18 03:01:03;;;;;;;22.10;12.47;;;13.00;99.90;;;;;;4992850;28;20274;-54
2023/07/18 03:03:29;;;;;;;20.33;13.47;;;12.90;99.90;;;;;;4992948;28;20196;-54
2023/07/18 03:05:56;;;;;;;26.30;14.13;;;12.90;99.90;;;;;;4993135;28;20542;-54
2023/07/18 03:08:22;;;;;;;22.43;12.93;;;12.90;99.90;;;;;;4992846;28;20421;-54
2023/07/18 03:10:47;;;;;;;21.60;13.33;;;12.90;99.90;;;;;;4992379;28;20518;-54
2023/07/18 03:13:13;;;;;;;25.03;14.30;;;12.80;99.90;;;;;;4992502;28;20909;-54
2023/07/18 03:15:39;;;;;;;27.47;13.27;;;12.90;99.90;;;;;;4992366;28;20185;-55
2023/07/18 03:18:06;;;;;;;27.17;13.53;;;13.00;99.90;;;;;;4992333;28;20258;-54
2023/07/18 03:20:32;;;;;;;21.00;12.30;;;13.00;99.90;;;;;;4992382;28;20913;-54
2023/07/18 03:22:58;;;;;;;22.60;13.50;;;13.00;99.90;;;;;;4992405;28;20797;-55
2023/07/18 03:25:23;;;;;;;23.30;13.30;;;13.10;99.90;;;;;;4992192;28;20447;-55
2023/07/18 03:27:50;;;;;;;19.13;12.53;;;13.10;99.90;;;;;;4992480;28;21091;-54
2023/07/18 03:30:16;;;;;;;21.07;12.90;;;13.00;99.90;;;;;;4992357;28;20214;-55
2023/07/18 03:32:41;;;;;;;24.73;13.70;;;13.10;99.90;;;;;;4992456;28;20425;-54
2023/07/18 03:35:09;;;;;;;24.73;12.87;;;13.10;99.90;;;;;;4992063;28;20424;-54
2023/07/18 03:37:35;;;;;;;21.67;12.67;;;13.10;99.90;;;;;;4992173;28;20179;-54
2023/07/18 03:40:02;;;;;;;23.40;12.97;;;13.10;99.90;;;;;;4992224;28;20435;-55
2023/07/18 03:42:28;;;;;;;18.43;13.17;;;13.00;99.90;;;;;;4992233;28;20519;-55
2023/07/18 03:44:54;;;;;;;27.03;13.57;;;13.00;99.90;;;;;;4991762;28;20575;-55
2023/07/18 03:47:19;;;;;;;24.23;14.13;;;13.00;99.90;;;;;;4992194;28;20232;-55
2023/07/18 03:49:45;;;;;;;21.23;13.17;;;13.10;99.90;;;;;;4991990;28;20218;-55
2023/07/18 03:52:10;;;;;;;23.83;12.33;;;13.10;99.90;;;;;;4992067;28;20247;-54
2023/07/18 03:54:36;;;;;;;23.97;13.00;;;13.10;99.90;;;;;;4991875;28;20234;-54
2023/07/18 03:57:01;;;;;;;25.60;14.20;;;13.10;99.90;;;;;;4991700;28;20607;-53
2023/07/18 03:59:27;;;;;;;19.90;12.40;;;13.10;99.90;;;;;;4992107;28;20224;-54
2023/07/18 04:01:53;;;;;;;23.57;12.13;;;13.20;99.90;;;;;;4991767;28;20271;-55
2023/07/18 04:04:18;;;;;;;26.97;12.93;;;13.20;99.90;;;;;;4991812;28;20199;-55
2023/07/18 04:06:44;;;;;;;23.10;12.40;;;13.20;99.90;;;;;;4991653;28;20179;-55
2023/07/18 04:09:10;;;;;;;22.07;12.30;;;13.30;99.90;;;;;;4991740;28;20599;-55
2023/07/18 04:11:37;;;;;;;23.60;13.53;;;13.30;99.90;;;;;;4991894;28;20585;-54
2023/07/18 04:14:02;;;;;;;20.63;11.47;;;13.40;99.90;;;;;;4991799;28;20917;-54
2023/07/18 04:16:28;;;;;;;26.53;13.33;;;13.40;99.90;;;;;;4991936;28;20501;-55
2023/07/18 04:18:53;;;;;;;24.63;12.50;;;13.50;99.90;;;;;;4991279;28;20178;-56
2023/07/18 04:21:19;;;;;;;20.50;11.90;;;13.50;99.90;;;;;;4991815;28;20256;-56
2023/07/18 04:23:45;;;;;;;21.00;12.33;;;13.60;99.90;;;;;;4991344;28;20669;-56
2023/07/18 04:26:12;;;;;;;22.40;12.37;;;13.60;99.90;;;;;;4991561;28;20186;-56
2023/07/18 04:28:39;;;;;;;25.30;12.80;;;13.70;99.90;;;;;;4991501;28;20421;-55
2023/07/18 04:31:05;;;;;;;21.90;12.20;;;13.70;99.90;;;;;;4991296;28;20502;-55
2023/07/18 04:33:36;;;;;;;21.00;12.33;;;13.80;99.90;;;;;;4991821;28;20426;-55
2023/07/18 04:36:02;;;;;;;26.27;13.33;;;13.80;99.90;;;;;;4990812;28;20420;-54
2023/07/18 04:38:28;;;;;;;25.53;12.53;;;13.80;99.90;;;;;;4991406;28;20526;-55
2023/07/18 04:40:54;;;;;;;19.10;11.87;;;13.90;99.90;;;;;;4991351;28;20945;-55
2023/07/18 04:43:19;;;;;;;24.30;12.90;;;13.90;99.90;;;;;;4991488;28;20638;-56
2023/07/18 04:45:47;;;;;;;25.60;11.77;;;13.90;99.90;;;;;;4990974;28;20622;-56
2023/07/18 04:48:18;;;;;;;18.57;12.37;;;14.00;99.90;;;;;;4991317;28;20658;-55
2023/07/18 04:50:47;;;;;;;23.27;12.37;;;13.90;99.90;;;;;;4990977;28;20937;-56
2023/07/18 04:53:13;;;;;;;20.00;11.03;;;14.00;99.90;;;;;;4991244;28;20458;-56
2023/07/18 04:55:39;;;;;;;18.57;10.97;;;14.20;99.90;;;;;;4991035;28;20549;-56
2023/07/18 04:58:06;;;;;;;19.67;11.40;;;14.20;99.90;;;;;;4991170;28;20663;-55
2023/07/18 05:00:33;;;;;;;18.10;11.50;;;14.30;99.90;;;;;;4990991;28;20588;-55
2023/07/18 05:03:00;;;;;;;23.60;11.00;;;14.40;99.90;;;;;;4991313;28;20418;-56
2023/07/18 05:05:27;;;;;;;19.43;10.73;;;14.40;99.90;;;;;;4991099;28;20506;-56
2023/07/18 05:07:56;;;;;;;17.93;10.47;;;14.40;99.90;;;;;;4990971;28;20453;-55
2023/07/18 05:10:22;;;;;;;25.00;10.20;;;14.40;99.90;;;;;;4990223;28;20470;-57
2023/07/18 05:12:53;;;;;;;18.80;10.47;;;14.50;99.90;;;;;;4990845;28;20473;-56
2023/07/18 05:15:19;;;;;;;21.17;10.10;;;14.60;99.90;;;;;;4990759;28;20419;-56
2023/07/18 05:17:46;;;;;;;17.97;10.40;;;14.60;99.90;;;;;;4990766;28;20416;-57
2023/07/18 05:20:12;;;;;;;18.17;9.57;;;14.70;99.90;;;;;;4990701;28;20194;-58
2023/07/18 05:22:41;;;;;;;17.97;9.87;;;14.70;99.90;;;;;;4990549;28;20415;-57
2023/07/18 05:25:08;;;;;;;17.63;10.07;;;14.80;99.90;;;;;;4990291;28;20421;-57
2023/07/18 05:27:34;;;;;;;15.60;9.63;;;15.00;99.90;;;;;;4990088;28;20418;-57
2023/07/18 05:30:00;;;;;;;17.63;11.20;;;15.10;99.90;;;;;;4990515;28;20825;-56
2023/07/18 05:32:26;;;;;;;14.27;9.23;;;15.30;99.90;;;;;;4990178;28;20222;-56
2023/07/18 05:34:52;;;;;;;15.23;9.63;;;15.50;56.40;;;;;;4990036;28;21528;-57
2023/07/18 05:37:18;;;;;;;14.73;9.17;;;15.60;1.00;;;;;;4990092;28;20181;-57
2023/07/18 05:39:43;;;;;;;17.47;8.67;;;15.70;1.00;;;;;;4990004;28;20178;-57
2023/07/18 05:42:09;;;;;;;14.90;9.07;;;15.90;1.00;;;;;;4990082;28;20457;-54
2023/07/18 05:44:34;;;;;;;13.73;8.73;;;16.10;1.00;;;;;;4989988;28;20200;-57
2023/07/18 05:47:00;;;;;;;19.10;9.60;;;16.20;1.00;;;;;;4990153;28;20182;-58
2023/07/18 05:49:29;;;;;;;15.50;8.43;;;16.40;99.90;;;;;;4989999;28;20690;-57
2023/07/18 05:51:55;;;;;;;19.00;7.80;;;16.40;99.90;;;;;;4990166;28;20190;-60
2023/07/18 05:54:20;;;;;;;20.13;8.33;;;16.50;99.90;;;;;;4989516;28;20477;-57
2023/07/18 05:56:46;;;;;;;17.47;8.57;;;16.80;99.90;;;;;;4989980;28;20195;-59
2023/07/18 05:59:12;;;;;;;15.30;9.20;;;17.00;1.00;;;;;;4989798;28;20192;-57
2023/07/18 06:01:38;;;;;;;16.80;8.37;;;17.00;1.00;;;;;;4989595;28;20476;-58
2023/07/18 06:04:03;;;;;;;15.33;7.60;;;17.10;1.00;;;;;;4989694;28;20306;-54
2023/07/18 06:06:30;;;;;;;16.60;8.27;;;17.00;99.90;;;;;;4990127;28;20203;-57
2023/07/18 06:08:56;;;;;;;15.90;8.53;;;17.00;1.00;;;;;;4989695;28;20252;-56
2023/07/18 06:11:21;;;;;;;17.03;8.07;;;17.00;99.90;;;;;;4989787;28;20996;-58
2023/07/18 06:13:49;;;;;;;15.03;7.87;;;17.10;99.90;;;;;;4989763;28;20670;-59
2023/07/18 06:16:14;;;;;;;13.63;6.60;;;17.40;99.90;;;;;;4989965;28;20322;-58
2023/07/18 06:18:41;;;;;;;11.37;7.03;;;17.60;99.90;;;;;;4989645;28;20862;-59
2023/07/18 06:21:07;;;;;;;16.93;7.50;;;17.70;99.90;;;;;;4989492;28;20667;-57
2023/07/18 06:23:33;;;;;;;12.53;7.10;;;17.70;99.90;;;;;;4989575;28;20423;-57
2023/07/18 06:25:58;;;;;;;16.77;7.40;;;17.90;99.90;;;;;;4989976;28;20191;-58
2023/07/18 06:28:24;;;;;;;20.17;7.03;;;18.00;99.90;;;;;;4989474;28;20188;-56
2023/07/18 06:30:57;;;;;;;13.43;6.20;;;18.10;90.20;;;;;;4989572;28;20203;-57
2023/07/18 06:33:23;;;;;;;24.40;8.37;;;18.10;97.40;;;;;;4989499;28;21121;-56
2023/07/18 06:35:52;;;;;;;18.83;7.80;;;18.10;38.90;;;;;;4988378;28;21215;-57
2023/07/18 06:38:18;;;;;;;12.50;6.60;;;18.10;45.70;;;;;;4988446;28;20823;-58
2023/07/18 06:40:48;;;;;;;13.17;6.93;;;18.10;77.30;;;;;;4988430;28;20430;-56
2023/07/18 06:43:14;;;;;;;13.80;7.23;;;18.20;89.50;;;;;;4988063;28;20189;-55
2023/07/18 06:45:43;;;;;;;17.10;7.27;;;18.10;45.90;;;;;;4988026;28;20419;-54
2023/07/18 06:48:09;;;;;;;15.10;7.30;;;18.20;75.30;;;;;;4988272;28;20438;-55
2023/07/18 06:50:36;;;;;;;12.73;7.47;;;18.20;41.40;;;;;;4988463;28;20831;-56
2023/07/18 06:53:02;;;;;;;12.90;7.27;;;18.10;33.90;;;;;;4989529;28;20195;-57
2023/07/18 06:55:27;;;;;;;21.40;7.80;;;18.20;33.10;;;;;;4988901;28;20477;-56
2023/07/18 06:57:53;;;;;;;15.67;6.97;;;18.20;9.50;;;;;;4989340;28;20757;-57
2023/07/18 07:00:20;;;;;;;15.33;6.90;;;18.10;17.60;;;;;;4990496;28;20191;-57
2023/07/18 07:02:46;;;;;;;13.47;6.90;;;18.20;48.00;;;;;;4992209;28;20717;-57
2023/07/18 07:05:11;;;;;;;11.67;7.00;;;18.40;46.20;;;;;;4992435;28;20416;-56
2023/07/18 07:07:37;;;;;;;15.23;7.90;;;18.70;1.00;;;;;;4992619;28;20190;-56
2023/07/18 07:10:03;;;;;;;18.97;7.17;;;18.70;1.00;;;;;;4989879;28;20215;-53
2023/07/18 07:12:32;;;;;;;17.13;7.07;;;18.80;1.00;;;;;;4990610;28;20199;-56
2023/07/18 07:14:58;;;;;;;15.30;6.73;;;18.90;1.00;;;;;;4992318;28;20226;-58
2023/07/18 07:17:23;;;;;;;13.37;7.30;;;19.10;1.00;;;;;;4992220;28;20431;-56
2023/07/18 07:19:49;;;;;;;12.43;6.60;;;19.40;1.00;;;;;;4991739;28;20187;-58
2023/07/18 07:22:14;;;;;;;12.63;6.33;;;19.40;1.00;;;;;;4991520;28;20634;-57
2023/07/18 07:24:41;;;;;;;13.10;6.20;;;19.60;1.00;;;;;;4991483;28;20690;-57
2023/07/18 07:27:07;;;;;;;11.33;6.70;;;19.40;1.00;;;;;;4991445;28;20192;-56
2023/07/18 07:29:32;;;;;;;19.63;6.60;;;19.10;1.00;;;;;;4991678;28;20470;-55
2023/07/18 07:31:58;;;;;;;12.30;6.67;;;18.90;1.00;;;;;;4991142;28;20191;-56
2023/07/18 07:34:23;;;;;;;11.57;6.03;;;19.10;1.00;;;;;;4991445;28;20215;-56
2023/07/18 07:36:49;;;;;;;12.93;6.90;;;19.40;1.00;;;;;;4992002;28;20633;-58
2023/07/18 07:39:15;;;;;;;8.97;6.30;;;19.80;1.00;;;;;;4991716;28;20277;-57
2023/07/18 07:41:40;;;;;;;10.93;6.20;;;19.70;1.00;;;;;;4992065;28;20188;-56
2023/07/18 07:44:06;;;;;;;11.73;6.07;;;19.50;1.00;;;;;;4991809;28;20184;-56
2023/07/18 07:46:32;;;;;;;9.20;5.37;;;19.80;1.00;;;;;;4992201;28;20262;-58
2023/07/18 07:48:58;;;;;;;9.70;5.77;;;20.50;1.00;;;;;;4991864;28;20207;-57
2023/07/18 07:51:23;;;;;;;9.53;4.70;;;20.70;1.00;;;;;;4991832;28;20893;-57
2023/07/18 07:53:49;;;;;;;11.23;4.80;;;20.30;1.00;;;;;;4991593;28;20215;-57
2023/07/18 07:56:15;;;;;;;9.93;4.73;;;20.40;1.00;;;;;;4991887;28;20705;-57
2023/07/18 07:58:40;;;;;;;9.30;4.77;;;20.80;1.00;;;;;;4991619;28;20243;-57
2023/07/18 08:01:06;;;;;;;10.37;4.30;;;20.90;1.00;;;;;;4991338;28;20186;-57
2023/07/18 08:03:32;;;;;;;10.83;5.07;;;20.90;1.00;;;;;;4992065;28;20190;-56
2023/07/18 08:05:58;;;;;;;10.00;4.57;;;20.90;1.00;;;;;;4991373;28;20518;-56
2023/07/18 08:08:25;;;;;;;8.50;4.30;;;21.40;1.00;;;;;;4991698;28;20269;-56
2023/07/18 08:10:50;;;;;;;10.50;4.60;;;21.70;1.00;;;;;;4990711;28;20478;-57
2023/07/18 08:13:17;;;;;;;9.00;4.50;;;21.70;1.00;;;;;;4990758;28;20426;-56
2023/07/18 08:15:43;;;;;;;13.23;4.50;;;21.50;1.00;;;;;;4991465;28;20184;-56
2023/07/18 08:18:09;;;;;;;12.10;4.50;;;21.30;1.00;;;;;;4991408;28;20925;-57
2023/07/18 08:20:35;;;;;;;10.67;3.97;;;20.90;1.00;;;;;;4991380;28;20667;-57
2023/07/18 08:23:01;;;;;;;9.40;3.77;;;21.10;1.00;;;;;;4991648;28;20197;-55
2023/07/18 08:25:26;;;;;;;8.03;4.13;;;21.20;1.00;;;;;;4991052;28;20422;-55
2023/07/18 08:27:52;;;;;;;7.60;4.00;;;21.00;1.00;;;;;;4990609;28;20657;-57
2023/07/18 08:30:19;;;;;;;7.87;3.60;;;20.80;1.00;;;;;;4990943;28;20206;-57
2023/07/18 08:32:45;;;;;;;5.53;4.20;;;20.90;1.00;;;;;;4991476;28;20303;-57
2023/07/18 08:35:11;;;;;;;9.27;4.10;;;21.10;1.00;;;;;;4990911;28;20430;-57
2023/07/18 08:37:39;;;;;;;6.40;3.57;;;21.10;1.00;;;;;;4990895;28;20220;-55
2023/07/18 08:40:05;;;;;;;7.93;3.63;;;21.10;1.00;;;;;;4991205;28;20537;-57
2023/07/18 08:42:32;;;;;;;7.27;3.93;;;21.00;1.00;;;;;;4991309;28;20774;-58
2023/07/18 08:44:59;;;;;;;6.43;3.70;;;20.90;1.00;;;;;;4990923;28;20419;-57
2023/07/18 08:47:26;;;;;;;8.43;3.70;;;21.00;1.00;;;;;;4991012;28;20424;-57
2023/07/18 08:49:52;;;;;;;5.10;3.47;;;21.30;1.00;;;;;;4991035;28;20908;-57
2023/07/18 08:52:18;;;;;;;7.20;3.70;;;21.30;1.00;;;;;;4991023;28;20417;-57
2023/07/18 08:54:44;;;;;;;6.40;3.30;;;21.00;1.00;;;;;;4990462;28;20839;-56
2023/07/18 08:57:11;;;;;;;6.37;3.37;;;20.90;1.00;;;;;;4990699;28;20573;-55
2023/07/18 08:59:39;;;;;;;7.07;3.30;;;21.00;1.00;;;;;;4990743;28;20268;-53
2023/07/18 09:02:05;;;;;;;10.00;3.20;;;20.80;1.00;;;;;;4990717;28;20977;-55
2023/07/18 09:04:31;;;;;;;7.87;3.93;;;20.90;1.00;;;;;;4989240;28;20555;-56
2023/07/18 09:07:01;;;;;;;5.23;3.27;;;20.80;1.00;;;;;;4990386;28;20697;-56
2023/07/18 09:09:27;;;;;;;7.60;3.53;;;20.90;1.00;;;;;;4990496;28;20556;-54
2023/07/18 09:12:03;;;;;;;5.17;2.63;;;21.00;1.00;;;;;;4990708;28;20434;-54
2023/07/18 09:14:31;;;;;;;6.30;2.90;;;21.00;1.00;;;;;;4990797;28;20182;-56
2023/07/18 09:17:00;;;;;;;5.47;3.30;;;21.20;1.00;;;;;;4990264;28;20526;-54
2023/07/18 09:19:36;;;;;;;5.00;2.73;;;21.40;1.00;;;;;;4990538;28;20426;-54
2023/07/18 09:22:04;;;;;;;4.57;2.73;;;21.50;1.00;;;;;;4990636;28;20436;-55
2023/07/18 09:24:31;;;;;;;3.93;2.53;;;21.60;1.00;;;;;;4989891;28;20994;-55
2023/07/18 09:26:57;;;;;;;4.30;2.47;;;22.20;1.00;;;;;;4990448;28;20422;-54
2023/07/18 09:29:25;;;;;;;8.33;2.40;;;22.70;1.00;;;;;;4990399;28;20459;-55
2023/07/18 09:31:50;;;;;;;7.07;2.90;;;23.50;1.00;;;;;;4990361;28;20427;-55
2023/07/18 09:34:18;;;;;;;5.27;2.30;;;23.60;1.00;;;;;;4989997;28;20424;-55
2023/07/18 09:36:58;;;;;;;4.27;2.07;;;23.30;1.00;;;;;;4990004;28;20262;-55
2023/07/18 09:39:24;;;;;;;8.50;2.50;;;23.60;1.00;;;;;;4990191;28;20906;-55
2023/07/18 09:41:51;;;;;;;4.47;2.20;;;24.40;1.00;;;;;;4989891;28;20420;-55
2023/07/18 09:44:18;;;;;;;4.13;2.00;;;24.90;1.00;;;;;;4989831;28;20482;-55
2023/07/18 09:46:44;;;;;;;6.10;2.17;;;24.70;1.00;;;;;;4990217;28;20511;-55
2023/07/18 09:49:10;;;;;;;8.27;2.53;;;24.50;1.00;;;;;;4989775;28;20507;-54
2023/07/18 09:51:38;;;;;;;4.97;2.17;;;24.80;1.00;;;;;;4990340;28;20243;-55
2023/07/18 09:54:06;;;;;;;5.57;2.57;;;25.20;1.00;;;;;;4990068;28;20263;-54
2023/07/18 09:56:38;;;;;;;5.07;2.57;;;25.40;1.00;;;;;;5004902;28;20420;-55
2023/07/18 09:59:07;;;;;;;6.80;2.47;;;25.40;1.00;;;;;;4990440;28;20416;-55
2023/07/18 10:01:32;;;;;;;9.00;2.20;;;25.80;1.00;;;;;;4989954;28;20424;-54
2023/07/18 10:03:58;;;;;;;5.00;2.40;;;26.10;1.00;;;;;;4989680;28;20462;-53
2023/07/18 10:06:25;;;;;;;3.20;2.00;;;26.00;1.00;;;;;;4989943;28;20192;-53
2023/07/18 10:08:53;;;;;;;6.13;2.30;;;26.40;1.00;;;;;;4989870;28;20181;-53
2023/07/18 10:11:19;;;;;;;6.50;2.40;;;26.60;1.00;;;;;;4989797;28;20459;-53
2023/07/18 10:14:06;;;;;;;3.80;2.20;;;26.60;1.00;;;;;;4989660;28;21003;-54
2023/07/18 10:16:35;;;;;;;2.10;1.67;;;26.40;1.00;;;;;;4989416;28;20705;-54
2023/07/18 10:19:18;;;;;;;3.43;2.07;;;26.50;1.00;;;;;;4989749;28;20435;-55
2023/07/18 10:21:46;;;;;;;3.20;1.93;;;26.60;99.90;;;;;;4989798;28;20400;-53
2023/07/18 10:24:21;;;;;;;4.60;2.10;;;26.60;99.90;;;;;;4990023;28;20541;-53
2023/07/18 10:27:00;;;;;;;3.70;2.50;;;26.90;99.90;;;;;;4989683;28;20424;-53
2023/07/18 10:29:31;;;;;;;4.70;2.30;;;27.10;99.90;;;;;;4989691;28;20448;-53
2023/07/18 10:31:58;;;;;;;4.47;2.13;;;26.80;99.90;;;;;;4989596;28;20416;-53
2023/07/18 10:34:24;;;;;;;4.60;2.10;;;26.50;99.90;;;;;;4989769;28;20469;-53
2023/07/18 10:37:08;;;;;;;2.60;1.90;;;26.70;99.90;;;;;;4992747;28;20424;-53
2023/07/18 10:39:38;;;;;;;4.67;2.30;;;26.40;99.90;;;;;;4992958;28;20723;-54
2023/07/18 10:42:21;;;;;;;7.50;3.67;;;25.90;99.90;;;;;;4993347;28;20877;-53
2023/07/18 10:44:48;;;;;;;5.00;1.80;;;26.10;99.90;;;;;;4992686;28;20795;-54
2023/07/18 10:47:18;;;;;;;9.80;3.20;;;26.70;99.90;;;;;;4992796;28;20511;-53
2023/07/18 10:49:45;;;;;;;7.40;2.43;;;26.90;99.90;;;;;;4992674;28;20463;-53
2023/07/18 10:52:12;;;;;;;5.10;2.20;;;27.00;99.90;;;;;;4992430;28;20420;-52
2023/07/18 10:54:51;;;;;;;4.87;2.10;;;26.90;99.90;;;;;;4992823;28;20471;-53
2023/07/18 10:57:23;;;;;;;1.93;1.70;;;26.50;99.90;;;;;;4992688;28;20819;-53
2023/07/18 10:59:50;;;;;;;6.57;1.80;;;25.60;99.90;;;;;;4992342;28;20424;-53
2023/07/18 11:02:15;;;;;;;6.63;2.00;;;25.50;99.90;;;;;;4992611;28;20416;-53
2023/07/18 11:04:42;;;;;;;7.20;2.00;;;26.20;99.90;;;;;;4992517;28;20476;-53
2023/07/18 11:07:10;;;;;;;4.17;1.70;;;26.80;99.90;;;;;;4992828;28;20497;-53
2023/07/18 11:09:35;;;;;;;4.97;1.90;;;26.90;99.90;;;;;;4992577;28;20217;-53
2023/07/18 11:12:03;;;;;;;3.83;1.80;;;26.60;99.90;;;;;;4992219;28;20772;-53
2023/07/18 11:14:38;;;;;;;2.17;1.63;;;26.40;99.90;;;;;;4992451;28;20181;-54
2023/07/18 11:17:13;;;;;;;3.43;1.90;;;26.50;99.90;;;;;;4992565;28;20400;-53
2023/07/18 11:19:39;;;;;;;2.80;1.50;;;26.90;99.90;;;;;;4992766;28;20431;-53
2023/07/18 11:22:06;;;;;;;2.30;1.67;;;27.50;99.90;;;;;;4992147;28;20833;-53
2023/07/18 11:24:32;;;;;;;2.90;1.50;;;27.90;99.90;;;;;;4992261;28;20223;-53
2023/07/18 11:27:34;;;;;;;4.57;1.50;;;28.00;99.90;;;;;;4992104;28;20424;-53
2023/07/18 11:30:06;;;;;;;1.33;1.20;;;28.00;99.90;;;;;;5052169;28;20464;-53
2023/07/18 11:32:42;;;;;;;7.07;1.53;;;28.80;99.90;;;;;;5001471;28;20861;-53
2023/07/18 11:35:10;;;;;;;2.70;1.20;;;28.60;99.90;;;;;;4992141;28;20432;-53
2023/07/18 11:37:38;;;;;;;5.67;1.73;;;28.60;99.90;;;;;;4992402;28;20809;-53
2023/07/18 11:40:08;;;;;;;4.87;1.40;;;28.20;99.90;;;;;;4991519;28;20860;-53
2023/07/18 11:42:48;;;;;;;4.27;1.33;;;28.60;99.90;;;;;;4991948;28;20416;-53
2023/07/18 11:45:16;;;;;;;4.80;2.17;;;28.70;99.90;;;;;;4991801;28;20499;-52
2023/07/18 11:47:46;;;;;;;4.40;2.23;;;28.40;99.90;;;;;;4991796;28;20819;-52
2023/07/18 11:50:12;;;;;;;4.50;1.57;;;28.00;99.90;;;;;;4991521;28;20840;-52
2023/07/18 11:52:40;;;;;;;3.27;1.47;;;27.40;99.90;;;;;;4991820;28;20427;-53
2023/07/18 11:55:06;;;;;;;2.03;1.30;;;26.90;99.90;;;;;;4991700;28;20575;-53
2023/07/18 11:57:32;;;;;;;3.03;1.37;;;26.30;99.90;;;;;;4991789;28;20424;-52
2023/07/18 11:59:58;;;;;;;5.70;1.70;;;26.20;99.90;;;;;;4991703;28;20477;-53
2023/07/18 12:02:24;;;;;;;3.10;1.40;;;27.00;99.90;;;;;;4991722;28;20186;-53
2023/07/18 12:04:50;;;;;;;3.57;1.80;;;27.50;99.90;;;;;;4991485;28;20485;-53
2023/07/18 12:07:16;;;;;;;3.80;1.50;;;27.90;99.90;;;;;;4991689;28;20192;-52
2023/07/18 12:09:41;;;;;;;5.60;1.60;;;27.90;99.90;;;;;;4991529;28;20213;-50
2023/07/18 12:12:07;;;;;;;4.80;1.60;;;27.70;99.90;;;;;;4991549;28;21002;-52
2023/07/18 12:14:34;;;;;;;2.67;1.43;;;27.40;99.90;;;;;;4991485;28;20181;-52
2023/07/18 12:17:00;;;;;;;2.27;1.03;;;27.70;99.90;;;;;;4991500;28;20456;-51
2023/07/18 12:19:25;;;;;;;3.07;1.30;;;27.60;99.90;;;;;;4991108;28;20459;-53
2023/07/18 12:21:51;;;;;;;2.80;1.30;;;27.30;99.90;;;;;;4991496;28;20205;-51
2023/07/18 12:24:18;;;;;;;3.33;1.40;;;27.40;99.90;;;;;;4991126;28;20522;-51
2023/07/18 12:26:45;;;;;;;3.00;1.20;;;27.70;99.90;;;;;;4991342;28;20530;-53
2023/07/18 12:29:13;;;;;;;1.93;1.30;;;27.70;99.90;;;;;;4991417;28;20527;-51
2023/07/18 12:31:43;;;;;;;3.20;1.40;;;27.50;99.90;;;;;;4991455;28;20421;-50
2023/07/18 12:34:08;;;;;;;1.20;1.10;;;27.20;99.90;;;;;;4991459;28;20416;-52
2023/07/18 12:36:34;;;;;;;4.40;1.10;;;26.70;99.90;;;;;;4991174;28;20756;-52
2023/07/18 12:38:59;;;;;;;1.70;1.10;;;26.20;99.90;;;;;;4991121;28;20185;-52
2023/07/18 12:41:25;;;;;;;1.37;1.27;;;25.70;99.90;;;;;;4990797;28;20184;-52